createdAt,value
2022-12-29T00:00:13.073Z,88.77
2022-12-29T00:03:04.508Z,88.42
2022-12-29T00:05:32.697Z,88.70
2022-12-29T00:08:02.130Z,88.78
2022-12-29T00:10:31.819Z,88.87
2022-12-29T00:13:19.964Z,88.83
2022-12-29T00:15:51.857Z,88.81
2022-12-29T00:18:22.604Z,88.73
2022-12-29T00:21:28.914Z,88.57
2022-12-29T00:24:15.738Z,88.27
2022-12-29T00:27:06.779Z,88.92
2022-12-29T00:29:54.515Z,88.51
2022-12-29T00:32:40.950Z,88.75
2022-12-29T00:35:14.579Z,88.90
2022-12-29T00:38:07.279Z,88.60
2022-12-29T00:40:56.513Z,88.74
2022-12-29T00:43:45.006Z,88.49
2022-12-29T00:46:19.719Z,88.58
2022-12-29T00:49:34.053Z,88.84
2022-12-29T00:52:10.814Z,88.86
2022-12-29T00:54:40.729Z,88.58
2022-12-29T00:57:10.535Z,88.83
2022-12-29T00:59:40.953Z,88.96
2022-12-29T01:02:11.037Z,88.55
2022-12-29T01:04:39.857Z,88.87
2022-12-29T01:07:09.416Z,88.96
2022-12-29T01:09:57.882Z,88.63
2022-12-29T01:12:40.970Z,88.59
2022-12-29T01:15:13.505Z,88.77
2022-12-29T01:17:43.328Z,88.90
2022-12-29T01:20:13.624Z,88.83
2022-12-29T01:22:43.139Z,88.91
2022-12-29T01:25:10.991Z,88.75
2022-12-29T01:27:39.886Z,88.80
2022-12-29T01:30:09.124Z,88.67
2022-12-29T01:32:37.914Z,88.78
2022-12-29T01:35:07.161Z,88.81
2022-12-29T01:37:36.332Z,88.72
2022-12-29T01:40:05.422Z,88.97
2022-12-29T01:42:34.247Z,88.51
2022-12-29T01:45:14.173Z,88.98
2022-12-29T01:47:53.293Z,88.93
2022-12-29T01:50:31.808Z,88.80
2022-12-29T01:53:08.585Z,88.77
2022-12-29T01:55:44.910Z,88.86
2022-12-29T01:58:16.697Z,89.12
2022-12-29T02:00:46.591Z,89.01
2022-12-29T02:03:17.561Z,89.09
2022-12-29T02:05:59.794Z,89.05
2022-12-29T02:08:31.877Z,89.01
2022-12-29T02:11:02.911Z,88.99
2022-12-29T02:13:33.684Z,89.08
2022-12-29T02:16:26.123Z,89.16
2022-12-29T02:19:44.382Z,89.04
2022-12-29T02:22:31.243Z,89.32
2022-12-29T02:25:42.371Z,89.45
2022-12-29T02:28:25.747Z,89.36
2022-12-29T02:31:00.168Z,89.51
2022-12-29T02:33:53.711Z,89.61
2022-12-29T02:36:32.808Z,89.55
2022-12-29T02:39:13.203Z,89.32
2022-12-29T02:42:04.542Z,89.65
2022-12-29T02:45:17.212Z,89.53
2022-12-29T02:47:55.970Z,89.45
2022-12-29T02:50:36.530Z,89.42
2022-12-29T02:53:15.593Z,89.21
2022-12-29T02:55:53.780Z,89.34
2022-12-29T02:58:24.371Z,89.33
2022-12-29T03:01:26.035Z,89.43
2022-12-29T03:04:04.754Z,89.57
2022-12-29T03:06:52.708Z,89.07
2022-12-29T03:09:32.874Z,89.14
2022-12-29T03:12:15.390Z,89.11
2022-12-29T03:15:29.742Z,89.25
2022-12-29T03:18:07.455Z,89.22
2022-12-29T03:20:44.539Z,89.18
2022-12-29T03:23:14.953Z,89.14
2022-12-29T03:25:52.093Z,89.12
2022-12-29T03:28:54.317Z,89.30
2022-12-29T03:31:26.968Z,89.60
2022-12-29T03:33:57.621Z,89.15
2022-12-29T03:36:34.807Z,89.28
2022-12-29T03:39:15.335Z,89.33
2022-12-29T03:41:46.731Z,89.39
2022-12-29T03:44:14.858Z,89.24
2022-12-29T03:46:42.676Z,89.14
2022-12-29T03:49:11.936Z,89.39
2022-12-29T03:51:40.855Z,89.32
2022-12-29T03:54:08.565Z,89.35
2022-12-29T03:56:36.351Z,89.27
2022-12-29T03:59:04.232Z,89.21
2022-12-29T04:01:39.856Z,89.12
2022-12-29T04:04:08.727Z,89.38
2022-12-29T04:06:38.445Z,89.24
2022-12-29T04:09:08.517Z,89.32
2022-12-29T04:11:45.048Z,89.16
2022-12-29T04:14:13.804Z,89.33
2022-12-29T04:16:42.454Z,89.11
2022-12-29T04:19:11.679Z,89.30
2022-12-29T04:21:39.992Z,89.14
2022-12-29T04:24:09.873Z,88.91
2022-12-29T04:26:43.335Z,89.10
2022-12-29T04:29:29.839Z,89.11
2022-12-29T04:32:27.394Z,89.25
2022-12-29T04:34:57.419Z,89.23
2022-12-29T04:37:26.104Z,89.33
2022-12-29T04:39:54.297Z,89.30
2022-12-29T04:42:22.260Z,89.29
2022-12-29T04:44:51.799Z,89.28
2022-12-29T04:47:54.822Z,89.24
2022-12-29T04:50:50.937Z,89.32
2022-12-29T04:53:20.537Z,89.30
2022-12-29T04:55:52.939Z,89.18
2022-12-29T04:58:23.594Z,89.31
2022-12-29T05:00:54.246Z,89.49
2022-12-29T05:03:26.489Z,89.24
2022-12-29T05:05:58.331Z,89.40
2022-12-29T05:08:28.292Z,89.39
2022-12-29T05:10:59.390Z,89.48
2022-12-29T05:13:28.195Z,89.47
2022-12-29T05:15:57.828Z,89.41
2022-12-29T05:18:25.703Z,89.50
2022-12-29T05:20:55.209Z,89.55
2022-12-29T05:23:25.273Z,89.49
2022-12-29T05:26:01.232Z,89.52
2022-12-29T05:28:58.397Z,89.67
2022-12-29T05:31:27.134Z,89.87
2022-12-29T05:33:55.831Z,89.74
2022-12-29T05:36:24.125Z,89.70
2022-12-29T05:38:57.580Z,89.44
2022-12-29T05:41:28.286Z,89.52
2022-12-29T05:44:28.813Z,89.57
2022-12-29T05:47:16.761Z,89.60
2022-12-29T05:54:23.261Z,89.75
2022-12-29T05:56:51.747Z,89.79
2022-12-29T05:59:19.775Z,89.72
2022-12-29T06:01:53.427Z,89.69
2022-12-29T06:04:22.378Z,89.50
2022-12-29T06:06:56.664Z,89.74
2022-12-29T06:09:33.750Z,89.66
2022-12-29T06:12:03.531Z,89.76
2022-12-29T06:14:33.190Z,89.67
2022-12-29T06:17:01.614Z,89.79
2022-12-29T06:19:31.608Z,89.96
2022-12-29T06:22:01.016Z,89.69
2022-12-29T06:24:30.778Z,89.81
2022-12-29T06:26:59.704Z,89.76
2022-12-29T06:29:28.522Z,89.91
2022-12-29T06:32:01.561Z,89.73
2022-12-29T06:34:34.278Z,89.52
2022-12-29T06:37:04.022Z,89.44
2022-12-29T06:39:33.544Z,89.73
2022-12-29T06:42:06.584Z,89.51
2022-12-29T06:45:08.183Z,89.75
2022-12-29T06:47:36.576Z,89.83
2022-12-29T06:50:30.879Z,89.86
2022-12-29T06:52:58.637Z,89.61
2022-12-29T06:55:28.620Z,89.89
2022-12-29T06:57:57.757Z,89.85
2022-12-29T07:00:26.350Z,89.79
2022-12-29T07:02:56.187Z,89.94
2022-12-29T07:05:28.293Z,90.04
2022-12-29T07:07:57.536Z,89.82
2022-12-29T07:10:25.846Z,89.95
2022-12-29T07:12:53.785Z,89.99
2022-12-29T07:15:21.879Z,89.91
2022-12-29T07:17:52.992Z,89.98
2022-12-29T07:20:26.538Z,89.76
2022-12-29T07:22:55.380Z,89.92
2022-12-29T07:25:23.613Z,89.91
2022-12-29T07:27:55.098Z,89.72
2022-12-29T07:30:23.874Z,89.54
2022-12-29T07:32:53.551Z,89.68
2022-12-29T07:35:21.883Z,89.54
2022-12-29T07:37:50.214Z,89.72
2022-12-29T07:40:18.031Z,89.75
2022-12-29T07:42:48.112Z,89.49
2022-12-29T07:45:19.243Z,89.89
2022-12-29T07:47:55.204Z,89.76
2022-12-29T07:50:24.370Z,89.62
2022-12-29T07:52:54.110Z,89.76
2022-12-29T07:55:21.867Z,89.71
2022-12-29T07:57:50.159Z,89.84
2022-12-29T08:00:20.308Z,89.87
2022-12-29T08:02:50.666Z,89.63
2022-12-29T08:05:18.487Z,89.64
2022-12-29T08:07:47.874Z,89.77
2022-12-29T08:10:17.269Z,90.06
2022-12-29T08:12:45.615Z,89.63
2022-12-29T08:15:15.706Z,89.51
2022-12-29T08:17:46.359Z,89.88
2022-12-29T08:20:14.075Z,89.48
2022-12-29T08:22:41.821Z,89.80
2022-12-29T08:25:11.217Z,89.82
2022-12-29T08:27:44.196Z,89.71
2022-12-29T08:30:12.739Z,89.99
2022-12-29T08:32:42.328Z,89.51
2022-12-29T08:35:11.838Z,89.69
2022-12-29T08:37:40.243Z,89.83
2022-12-29T08:40:11.904Z,89.59
2022-12-29T08:42:42.561Z,89.35
2022-12-29T08:45:10.869Z,89.68
2022-12-29T08:47:38.760Z,89.41
2022-12-29T08:50:57.121Z,89.73
2022-12-29T08:53:24.890Z,89.67
2022-12-29T08:56:04.095Z,89.58
2022-12-29T08:58:36.739Z,89.29
2022-12-29T09:01:05.718Z,89.26
2022-12-29T09:06:24.379Z,89.24
2022-12-29T09:08:57.889Z,89.22
2022-12-29T09:11:27.015Z,89.57
2022-12-29T09:13:56.995Z,89.09
2022-12-29T09:16:26.230Z,89.23
2022-12-29T09:18:57.655Z,89.25
2022-12-29T09:21:25.561Z,89.18
2022-12-29T09:23:56.214Z,89.36
2022-12-29T09:26:24.868Z,89.42
2022-12-29T09:28:53.658Z,89.41
2022-12-29T09:31:22.926Z,89.30
2022-12-29T09:33:50.954Z,88.92
2022-12-29T09:36:18.423Z,89.19
2022-12-29T09:38:45.981Z,89.17
2022-12-29T09:41:24.596Z,89.32
2022-12-29T09:44:06.510Z,89.06
2022-12-29T09:46:51.354Z,88.95
2022-12-29T09:49:55.341Z,88.59
2022-12-29T09:52:30.388Z,88.97
2022-12-29T09:55:14.172Z,89.03
2022-12-29T09:57:45.743Z,88.75
2022-12-29T10:00:39.011Z,88.71
2022-12-29T10:03:33.984Z,88.55
2022-12-29T10:06:18.914Z,88.17
2022-12-29T10:09:30.780Z,88.09
2022-12-29T10:12:20.070Z,88.04
2022-12-29T10:15:15.299Z,88.15
2022-12-29T10:17:51.284Z,88.30
2022-12-29T10:20:43.103Z,88.43
2022-12-29T10:23:38.293Z,88.24
2022-12-29T10:26:25.876Z,88.17
2022-12-29T10:29:04.600Z,88.20
2022-12-29T10:32:02.297Z,88.19
2022-12-29T10:37:48.464Z,88.03
2022-12-29T10:40:52.488Z,88.01
2022-12-29T10:43:29.263Z,87.94
2022-12-29T10:46:04.442Z,87.64
2022-12-29T10:49:02.791Z,87.92
2022-12-29T10:51:41.831Z,87.64
2022-12-29T10:54:42.002Z,87.66
2022-12-29T10:57:19.062Z,87.75
2022-12-29T10:59:49.055Z,87.56
2022-12-29T11:02:25.267Z,87.42
2022-12-29T11:05:12.550Z,87.40
2022-12-29T11:07:42.564Z,87.44
2022-12-29T11:10:41.678Z,87.38
2022-12-29T11:13:53.115Z,87.37
2022-12-29T11:16:57.178Z,87.24
2022-12-29T11:19:32.998Z,87.48
2022-12-29T11:22:26.082Z,87.37
2022-12-29T11:25:06.429Z,87.13
2022-12-29T11:27:34.812Z,87.12
2022-12-29T11:30:05.535Z,87.02
2022-12-29T11:32:35.612Z,87.02
2022-12-29T11:35:06.693Z,87.16
2022-12-29T11:37:42.921Z,86.88
2022-12-29T11:40:23.674Z,87.03
2022-12-29T11:42:54.005Z,86.91
2022-12-29T11:45:33.467Z,87.01
2022-12-29T11:48:11.180Z,86.79
2022-12-29T11:50:42.986Z,86.95
2022-12-29T11:53:24.561Z,86.87
2022-12-29T11:55:59.786Z,86.79
2022-12-29T11:58:35.757Z,86.97
2022-12-29T12:01:26.539Z,86.64
2022-12-29T12:04:05.985Z,86.74
2022-12-29T12:06:43.889Z,86.62
2022-12-29T12:09:26.772Z,86.49
2022-12-29T12:11:58.995Z,86.62
2022-12-29T12:14:46.806Z,86.85
2022-12-29T12:18:04.787Z,86.69
2022-12-29T12:20:45.424Z,86.85
2022-12-29T12:23:58.931Z,86.63
2022-12-29T12:26:58.410Z,86.77
2022-12-29T12:29:56.880Z,86.65
2022-12-29T12:32:45.665Z,86.53
2022-12-29T12:35:21.548Z,86.52
2022-12-29T12:38:20.575Z,86.48
2022-12-29T12:41:02.468Z,86.42
2022-12-29T12:44:01.807Z,86.46
2022-12-29T12:46:58.000Z,86.16
2022-12-29T12:50:12.763Z,86.86
2022-12-29T12:53:14.911Z,86.70
2022-12-29T12:56:03.621Z,85.51
2022-12-29T12:59:05.556Z,84.86
2022-12-29T13:01:52.688Z,84.00
2022-12-29T13:04:41.336Z,83.53
2022-12-29T13:07:17.587Z,83.00
2022-12-29T13:10:05.870Z,83.41
2022-12-29T13:12:43.722Z,83.85
2022-12-29T13:15:47.010Z,84.08
2022-12-29T13:18:30.496Z,84.49
2022-12-29T13:21:07.097Z,84.18
2022-12-29T13:23:53.125Z,83.98
2022-12-29T13:26:37.116Z,83.98
2022-12-29T13:29:37.087Z,84.23
2022-12-29T13:32:13.813Z,84.76
2022-12-29T13:34:47.674Z,84.91
2022-12-29T13:37:24.023Z,85.04
2022-12-29T13:39:57.095Z,84.39
2022-12-29T13:42:27.484Z,84.47
2022-12-29T13:45:07.792Z,84.22
2022-12-29T13:47:47.217Z,84.22
2022-12-29T13:50:25.960Z,83.84
2022-12-29T13:53:05.351Z,83.70
2022-12-29T13:56:09.129Z,83.62
2022-12-29T13:58:47.196Z,83.73
2022-12-29T14:01:45.656Z,84.03
2022-12-29T14:04:28.931Z,84.15
2022-12-29T14:07:18.516Z,84.26
2022-12-29T14:09:55.425Z,84.09
2022-12-29T14:12:39.832Z,83.99
2022-12-29T14:15:23.874Z,84.08
2022-12-29T14:18:12.332Z,83.90
2022-12-29T14:21:00.269Z,83.94
2022-12-29T14:23:37.910Z,83.77
2022-12-29T14:26:06.549Z,83.78
2022-12-29T14:28:41.155Z,83.86
2022-12-29T14:31:15.800Z,83.73
2022-12-29T14:34:11.703Z,83.79
2022-12-29T14:36:55.189Z,83.86
2022-12-29T14:39:41.872Z,83.80
2022-12-29T14:42:09.675Z,83.58
2022-12-29T14:44:57.338Z,83.42
2022-12-29T14:47:44.879Z,83.68
2022-12-29T14:50:41.891Z,83.39
2022-12-29T14:53:45.000Z,83.31
2022-12-29T14:56:16.663Z,83.09
2022-12-29T14:58:51.053Z,82.87
2022-12-29T15:01:53.131Z,82.94
2022-12-29T15:04:41.305Z,82.95
2022-12-29T15:07:11.404Z,82.83
2022-12-29T15:10:14.314Z,82.85
2022-12-29T15:12:53.406Z,82.96
2022-12-29T15:15:30.614Z,82.93
2022-12-29T15:18:13.837Z,82.65
2022-12-29T15:20:43.689Z,82.71
2022-12-29T15:23:17.323Z,82.67
2022-12-29T15:26:03.146Z,82.69
2022-12-29T15:28:43.471Z,82.66
2022-12-29T15:31:46.694Z,82.19
2022-12-29T15:34:15.382Z,82.55
2022-12-29T15:36:43.477Z,82.36
2022-12-29T15:39:28.698Z,82.36
2022-12-29T15:42:04.732Z,82.45
2022-12-29T15:44:43.933Z,82.43
2022-12-29T15:47:37.417Z,82.34
2022-12-29T15:50:37.795Z,82.23
2022-12-29T15:53:12.236Z,82.39
2022-12-29T15:55:44.033Z,82.24
2022-12-29T15:58:40.316Z,82.14
2022-12-29T16:01:37.268Z,82.30
2022-12-29T16:04:10.495Z,82.51
2022-12-29T16:07:27.804Z,82.32
2022-12-29T16:10:00.237Z,82.42
2022-12-29T16:12:35.163Z,82.07
2022-12-29T16:15:09.000Z,82.06
2022-12-29T16:17:54.940Z,82.13
2022-12-29T16:20:43.587Z,82.31
2022-12-29T16:23:38.376Z,82.22
2022-12-29T16:27:36.922Z,82.30
2022-12-29T16:34:32.516Z,82.53
2022-12-29T16:37:03.424Z,82.20
2022-12-29T16:39:36.907Z,82.14
2022-12-29T16:42:38.989Z,82.13
2022-12-29T16:45:24.891Z,82.11
2022-12-29T16:48:05.726Z,81.99
2022-12-29T16:50:38.620Z,82.09
2022-12-29T16:53:20.596Z,82.03
2022-12-29T16:55:54.523Z,81.91
2022-12-29T16:58:27.117Z,81.93
2022-12-29T17:01:01.297Z,82.05
2022-12-29T17:03:39.188Z,81.93
2022-12-29T17:06:15.698Z,81.81
2022-12-29T17:08:47.049Z,81.51
2022-12-29T17:11:53.885Z,81.87
2022-12-29T17:14:37.782Z,81.52
2022-12-29T17:17:15.747Z,81.81
2022-12-29T17:19:49.106Z,81.65
2022-12-29T17:22:21.113Z,81.80
2022-12-29T17:24:52.971Z,81.86
2022-12-29T17:27:32.043Z,81.89
2022-12-29T17:30:14.870Z,82.14
2022-12-29T17:32:44.756Z,81.82
2022-12-29T17:35:17.767Z,82.05
2022-12-29T17:37:47.758Z,82.05
2022-12-29T17:40:32.274Z,81.76
2022-12-29T17:43:01.424Z,82.01
2022-12-29T17:45:32.081Z,81.85
2022-12-29T17:48:02.201Z,81.67
2022-12-29T17:51:01.212Z,81.84
2022-12-29T17:53:32.802Z,81.83
2022-12-29T17:56:02.133Z,81.75
2022-12-29T17:58:33.078Z,81.65
2022-12-29T18:01:05.525Z,81.87
2022-12-29T18:03:37.075Z,81.77
2022-12-29T18:06:08.036Z,81.74
2022-12-29T18:08:38.593Z,81.60
2022-12-29T18:11:26.988Z,81.69
2022-12-29T18:17:52.503Z,81.57
2022-12-29T18:20:26.029Z,81.48
2022-12-29T18:23:02.725Z,81.59
2022-12-29T18:25:49.271Z,81.43
2022-12-29T18:28:29.236Z,81.51
2022-12-29T18:31:14.904Z,81.46
2022-12-29T18:33:45.233Z,81.57
2022-12-29T18:36:23.141Z,81.45
2022-12-29T18:39:02.045Z,81.33
2022-12-29T18:41:34.387Z,81.44
2022-12-29T18:44:05.483Z,81.38
2022-12-29T18:46:35.521Z,81.22
2022-12-29T18:49:18.871Z,81.33
2022-12-29T18:51:50.160Z,81.37
2022-12-29T18:54:45.911Z,81.33
2022-12-29T18:57:21.371Z,81.21
2022-12-29T18:59:52.222Z,81.24
2022-12-29T19:02:22.458Z,81.17
2022-12-29T19:04:53.154Z,81.07
2022-12-29T19:07:23.711Z,81.21
2022-12-29T19:09:52.571Z,81.16
2022-12-29T19:12:28.206Z,81.05
2022-12-29T19:14:57.208Z,81.09
2022-12-29T19:17:25.386Z,81.01
2022-12-29T19:19:54.455Z,81.01
2022-12-29T19:22:23.561Z,80.97
2022-12-29T19:24:54.945Z,81.00
2022-12-29T19:27:28.901Z,80.91
2022-12-29T19:29:57.772Z,80.82
2022-12-29T19:32:26.313Z,81.12
2022-12-29T19:34:56.359Z,80.96
2022-12-29T19:37:25.616Z,80.97
2022-12-29T19:39:53.324Z,80.88
2022-12-29T19:42:21.675Z,80.96
2022-12-29T19:44:49.366Z,80.84
2022-12-29T19:47:20.878Z,80.93
2022-12-29T19:49:53.261Z,80.92
2022-12-29T19:53:01.840Z,80.83
2022-12-29T19:55:47.816Z,80.77
2022-12-29T19:58:15.562Z,80.86
2022-12-29T20:00:45.072Z,80.78
2022-12-29T20:03:14.625Z,80.80
2022-12-29T20:05:48.659Z,80.77
2022-12-29T20:08:16.813Z,80.73
2022-12-29T20:10:45.563Z,80.80
2022-12-29T20:13:13.472Z,80.42
2022-12-29T20:15:44.286Z,80.77
2022-12-29T20:18:14.243Z,80.73
2022-12-29T20:20:43.880Z,80.75
2022-12-29T20:23:12.307Z,80.40
2022-12-29T20:25:45.227Z,80.51
2022-12-29T20:28:16.167Z,80.26
2022-12-29T20:30:45.078Z,80.48
2022-12-29T20:33:12.908Z,80.64
2022-12-29T20:35:44.629Z,80.35
2022-12-29T20:38:15.481Z,80.48
2022-12-29T20:40:46.963Z,80.68
2022-12-29T20:43:16.129Z,80.51
2022-12-29T20:45:46.850Z,80.93
2022-12-29T20:48:15.061Z,80.47
2022-12-29T20:50:46.877Z,80.48
2022-12-29T20:53:14.791Z,80.35
2022-12-29T20:55:43.167Z,80.50
2022-12-29T20:58:23.475Z,80.52
2022-12-29T21:00:55.571Z,80.47
2022-12-29T21:03:25.605Z,80.43
2022-12-29T21:05:56.401Z,80.43
2022-12-29T21:08:29.790Z,80.39
2022-12-29T21:11:00.752Z,80.59
2022-12-29T21:13:30.083Z,80.50
2022-12-29T21:16:02.424Z,80.64
2022-12-29T21:18:31.617Z,80.62
2022-12-29T21:21:03.843Z,80.54
2022-12-29T21:23:32.223Z,80.45
2022-12-29T21:26:00.625Z,80.89
2022-12-29T21:28:28.637Z,80.68
2022-12-29T21:30:56.334Z,80.43
2022-12-29T21:33:23.973Z,80.72
2022-12-29T21:35:52.643Z,80.52
2022-12-29T21:38:22.881Z,80.49
2022-12-29T21:40:54.041Z,80.90
2022-12-29T21:43:24.916Z,80.59
2022-12-29T21:45:54.484Z,80.78
2022-12-29T21:48:26.141Z,80.71
2022-12-29T21:51:30.121Z,80.85
2022-12-29T21:54:19.976Z,80.89
2022-12-29T21:56:49.951Z,80.76
2022-12-29T21:59:37.983Z,80.67
2022-12-29T22:02:55.822Z,80.98
2022-12-29T22:05:43.093Z,80.70
2022-12-29T22:08:30.411Z,80.75
2022-12-29T22:11:17.468Z,80.53
2022-12-29T22:13:45.853Z,80.63
2022-12-29T22:16:15.361Z,80.78
2022-12-29T22:18:44.521Z,80.49
2022-12-29T22:21:13.432Z,80.52
2022-12-29T22:23:42.851Z,80.34
2022-12-29T22:26:14.398Z,80.52
2022-12-29T22:28:45.742Z,80.52
2022-12-29T22:31:29.783Z,80.58
2022-12-29T22:34:01.422Z,80.49
2022-12-29T22:36:30.268Z,80.52
2022-12-29T22:38:59.068Z,80.50
2022-12-29T22:41:28.376Z,80.54
2022-12-29T22:43:57.457Z,80.69
2022-12-29T22:46:25.906Z,80.57
2022-12-29T22:48:56.864Z,80.30
2022-12-29T22:51:26.388Z,80.32
2022-12-29T22:53:56.608Z,80.60
2022-12-29T22:56:24.589Z,80.59
2022-12-29T22:58:56.208Z,80.80
2022-12-29T23:01:26.531Z,80.58
2022-12-29T23:04:10.988Z,80.27
2022-12-29T23:06:43.230Z,80.33
2022-12-29T23:09:17.899Z,80.39
2022-12-29T23:11:47.214Z,80.31
2022-12-29T23:14:17.131Z,80.45
2022-12-29T23:16:50.032Z,80.41
2022-12-29T23:19:17.839Z,80.34
2022-12-29T23:21:45.515Z,80.54
2022-12-29T23:24:14.761Z,80.31
2022-12-29T23:26:46.346Z,80.56
2022-12-29T23:29:20.130Z,80.53
2022-12-29T23:31:48.366Z,80.47
2022-12-29T23:34:17.246Z,80.53
2022-12-29T23:36:46.054Z,80.37
2022-12-29T23:39:20.052Z,80.51
2022-12-29T23:41:52.944Z,80.30
2022-12-29T23:44:22.867Z,80.44
2022-12-29T23:46:51.152Z,80.62
2022-12-29T23:49:20.504Z,80.68
2022-12-29T23:51:48.945Z,80.80
2022-12-29T23:54:19.020Z,80.71
2022-12-29T23:56:47.088Z,80.67
2022-12-29T23:59:14.643Z,80.92
